Crabtree Valley, North Carolina
Current Conditions -  °F | °C
As of 9:51 PM on Wednesday 22 Oct 2014 (Local Time) from KRDU Reporting Station
Few Clouds Few Clouds  
Wind Chill: 55°   Ceiling: Unl
Heat Index: 55°   Visibility: 10mi
Dew Point: 41°   Wind: 3mph
Humidity: 59%   Direction: NA
Pressure: 30.03"   Gusts: NA
Location:  35.8523°N, 78.6943°W
Report Text: KRDU 230151Z VRB03KT 10SM FEW070 13/05 A3003 RMK AO2 SLP168 T01280050
Loading
Personal Weather Stations






























Interactive Weather Map
Tropical Storm Tracking
New forecast layout! Learn more

10-Day Weather Forecast

Advertisements
Track Severe Weather on mobile